• Join FlightAware (Why Join?)
  • Login
  • US Flag 
01:08PM EDT


 

Airport Tracker/Info


-or-


 

Live Flight TrackerFlight Track Log ✈ N715CD ✈ 09-Jan-2014 ✈ KADS - KTUL

Flight Track Log - Related Links

Times and Time Zones

All times are in EST time to prevent confusion due to time zone crossing. See the N715CD flight status page for this flight to view local times or setup timezone preferences in your user account.

Time Position Orientation Groundspeed Altitude Reporting Facility
EST Latitude Longitude Course Direction KTS MPH feet Rate Location/Type
04:52PM 32.9667 -96.8333 349° North 97 112 900  Level Dallas / Fort Worth TRACON
04:54PM 32.9833 -96.7833 68° East 154 177 2,000 540 Climbing Dallas / Fort Worth TRACON
04:55PM 33.0000 -96.7333 68° East 170 196 2,400 420 Climbing Dallas / Fort Worth TRACON
04:56PM 33.0333 -96.7000 40° Northeast 166 191 3,000 600 Climbing Dallas / Fort Worth TRACON
04:57PM 33.0667 -96.7167 337° Northwest 154 177 3,600 480 Climbing Dallas / Fort Worth TRACON
04:58PM 33.2726 -96.9080 349° North  Level FlightAware Approximate
04:58PM 33.1000 -96.7333 337° Northwest 150 173 4,000  Level Dallas / Fort Worth TRACON
04:59PM 33.1425 -96.7594 333° Northwest 160 184 4,000  Level Fort Worth Center
05:00PM 33.1844 -96.7783 339° North 160 184 4,000  Level Fort Worth Center
05:01PM 33.2269 -96.8025 335° Northwest 157 181 4,000  Level Fort Worth Center
05:02PM 33.2664 -96.8233 336° Northwest 155 178 4,000  Level Fort Worth Center
05:03PM 33.3089 -96.8467 335° Northwest 156 180 4,000  Level Fort Worth Center
05:04PM 33.3489 -96.8711 333° Northwest 160 184 4,000  Level Fort Worth Center
05:05PM 33.3897 -96.8983 331° Northwest 166 191 4,000 120 Level Fort Worth Center
05:06PM 33.4347 -96.9253 333° Northwest 167 192 4,300 600 Climbing Fort Worth Center
05:07PM 33.4764 -96.9189 North 160 184 5,300 840 Climbing Fort Worth Center
05:08PM 33.5214 -96.9078 12° North 156 180 6,100 720 Climbing Fort Worth Center
05:09PM 33.5661 -96.8947 14° North 163 188 6,800 420 Climbing Fort Worth Center
05:10PM 33.6161 -96.8794 14° North 171 197 7,000 60 Climbing Fort Worth Center
05:11PM 33.6672 -96.8647 13° North 188 216 7,000  Level Fort Worth Center
05:12PM 33.7236 -96.8467 15° North 194 223 7,000  Level Fort Worth Center
05:13PM 33.7747 -96.8322 13° North 190 219 7,000  Level Fort Worth Center
05:14PM 33.8247 -96.8183 13° North 186 214 7,000  Level Fort Worth Center
05:15PM 33.8719 -96.8042 14° North 185 213 7,000  Level Fort Worth Center
05:16PM 33.9228 -96.7883 14° North 188 216 7,000  Level Fort Worth Center
05:17PM 33.9819 -96.7706 14° North 184 212 7,000  Level Fort Worth Center
05:18PM 34.0308 -96.7556 14° North 183 211 7,000  Level Fort Worth Center
05:19PM 34.0817 -96.7417 13° North 185 213 7,000 -60 Level Fort Worth Center
05:21PM 34.1358 -96.7236 15° North 187 215 6,900 -60 Descending Fort Worth Center
05:22PM 34.1856 -96.7103 13° North 185 213 6,900  Level Fort Worth Center
05:23PM 34.2353 -96.6933 16° North 185 213 6,900  Level Fort Worth Center
05:24PM 34.2861 -96.6767 15° North 188 216 6,900  Level Fort Worth Center
05:25PM 34.3478 -96.6542 17° North 192 221 6,900  Level Fort Worth Center
05:26PM 34.3975 -96.6397 13° North 187 215 6,900  Level Fort Worth Center
05:27PM 34.4486 -96.6222 16° North 189 217 6,900  Level Fort Worth Center
05:28PM 34.4992 -96.6050 16° North 189 217 6,900  Level Fort Worth Center
05:29PM 34.5494 -96.5906 13° North 187 215 6,900  Level Fort Worth Center
05:30PM 34.5994 -96.5742 15° North 186 214 6,900  Level Fort Worth Center
05:31PM 34.6608 -96.5539 15° North 188 216 6,900  Level Fort Worth Center
05:32PM 34.7122 -96.5369 15° North 190 219 6,900  Level Fort Worth Center
05:33PM 34.7642 -96.5183 16° North 191 220 7,000  Climbing Fort Worth Center
05:34PM 34.8164 -96.5003 16° North 194 223 7,000  Level Fort Worth Center
05:35PM 34.8675 -96.4833 15° North 193 222 7,000  Level Fort Worth Center
05:36PM 34.9294 -96.4636 15° North 192 221 7,000  Level Fort Worth Center
05:37PM 34.9808 -96.4464 15° North 192 221 7,000  Level Fort Worth Center
05:38PM 35.0322 -96.4283 16° North 192 221 7,000  Level Fort Worth Center
05:39PM 35.0822 -96.4128 14° North 189 217 7,000  Level Fort Worth Center
05:40PM 35.1342 -96.3953 15° North 192 221 7,000  Level Fort Worth Center
05:41PM 35.1850 -96.3792 15° North 191 220 7,000  Level Fort Worth Center
05:42PM 35.2456 -96.3575 16° North 190 219 7,000  Level Fort Worth Center
05:43PM 35.2969 -96.3408 15° North 191 220 7,000  Level Fort Worth Center
05:44PM 35.3472 -96.3244 15° North 189 217 7,000 -60 Level Fort Worth Center
05:45PM 35.3758 -96.3133 18° North 189 217 6,900 -60 Descending Kansas City Center
05:46PM 35.4256 -96.2967 15° North 185 213 6,900  Level Kansas City Center
05:47PM 35.4856 -96.2775 15° North 186 214 6,900  Level Kansas City Center
05:48PM 35.5333 -96.2594 17° North 182 209 7,000  Climbing Kansas City Center
05:49PM 35.5822 -96.2431 15° North 182 209 7,000  Level Kansas City Center
05:50PM 35.6319 -96.2272 15° North 183 211 7,000  Level Kansas City Center
05:51PM 35.6808 -96.2117 14° North 182 209 7,000  Level Kansas City Center
05:52PM 35.7364 -96.1931 15° North 184 212 7,000  Level Kansas City Center
05:52PM 35.7294 -96.1931 180° South 183 211 7,000  Level Kansas City Center
05:53PM 35.7886 -96.1739 15° North 183 211 7,000  Level Kansas City Center
05:54PM 35.8364 -96.1597 14° North 184 212 7,000  Level Kansas City Center
05:54PM 35.8417 -96.1561 29° Northeast 184 212 7,000  Level Kansas City Center
05:55PM 35.8853 -96.1433 13° North 185 213 7,000  Level Kansas City Center
05:55PM 35.8919 -96.1392 27° Northeast 185 213 7,000  Level Kansas City Center
05:56PM 35.9344 -96.1269 13° North 185 213 7,000  Level Kansas City Center
05:56PM 35.9417 -96.1231 24° Northeast 185 213 7,000  Level Kansas City Center
05:57PM 35.9872 -96.1072 16° North 185 213 7,000  Level Kansas City Center
05:57PM 35.9908 -96.1044 32° Northeast 185 213 7,000  Level Kansas City Center
05:58PM 36.0403 -96.0878 15° North 183 211 7,000  Level Kansas City Center
05:59PM 36.0872 -96.0739 13° North 182 209 7,000  Level Kansas City Center
05:59PM 36.0906 -96.0719 25° Northeast 185 213 7,000  Level Kansas City Center
06:00PM 36.1342 -96.0575 15° North 182 209 7,000  Level Kansas City Center
06:01PM 36.1392 -96.0544 26° Northeast 183 211 7,000  Level Kansas City Center
06:01PM 36.1828 -96.0383 17° North 180 207 7,000  Level Kansas City Center
06:02PM 36.1978 -96.0356 North 181 208 7,000  Level Kansas City Center
06:02PM 36.2317 -96.0217 18° North 179 206 7,000  Level Kansas City Center
06:03PM 36.2464 -96.0181 11° North 181 208 7,000  Level Kansas City Center
06:04PM 36.2950 -96.0008 16° North 181 208 7,000  Level Kansas City Center
06:05PM 36.3450 -95.9844 15° North 182 209 7,000  Level Kansas City Center
06:06PM 36.3942 -95.9669 16° North 183 211 7,000  Level Kansas City Center
06:07PM 36.4444 -95.9500 15° North 185 213 7,000  Level Kansas City Center
06:08PM 36.4931 -95.9325 16° North 182 209 7,000  Level Kansas City Center
06:09PM 36.5425 -95.9156 15° North 182 209 7,000  Level Kansas City Center
06:10PM 36.6011 -95.8953 16° North 181 208 7,000 -120 Level Kansas City Center
06:11PM 36.6497 -95.8786 15° North 180 207 6,800 -360 Descending Kansas City Center
06:12PM 36.7003 -95.8600 16° North 183 211 6,300 -480 Descending Kansas City Center
06:13PM 36.7528 -95.8422 15° North 189 217 5,900 -480 Descending Kansas City Center
06:14PM 36.8047 -95.8239 16° North 191 220 5,400 -480 Descending Kansas City Center
06:15PM 36.8561 -95.8061 15° North 191 220 5,000 -480 Descending Kansas City Center
06:16PM 36.9072 -95.7878 16° North 191 220 4,500 -540 Descending Kansas City Center
06:17PM 36.9656 -95.7675 16° North 186 214 3,900 -480 Descending Kansas City Center
06:18PM 37.0106 -95.7511 16° North 178 205 3,600 -300 Descending Kansas City Center
06:19PM 37.0550 -95.7358 15° North 171 197 3,300 -240 Descending Kansas City Center
06:20PM 37.0986 -95.7203 16° North 166 191 3,100 -300 Descending Kansas City Center
06:21PM 37.1433 -95.7044 16° North 166 191 2,800 -180 Descending Kansas City Center
06:22PM 37.1869 -95.6894 15° North 164 189 2,800  Level Kansas City Center
06:23PM 37.2286 -95.6744 16° North 160 184 2,800  Level Kansas City Center
06:24PM 37.2786 -95.6564 16° North 157 181 2,800  Level Kansas City Center
06:25PM 37.3175 -95.6422 16° North 152 175 2,800  Level Kansas City Center
06:26PM 37.3508 -95.6464 354° North 152 175 2,800 -180 Level Kansas City Center
06:27PM 37.3517 -95.6922 271° West 146 168 2,500 -180 Descending Kansas City Center
06:28PM 37.3531 -95.7372 272° West 137 158 2,500  Level Kansas City Center
06:29PM 37.3433 -95.7761 253° West 131 151 2,500 -60 Level Kansas City Center
06:30PM 37.3111 -95.7744 178° South 123 142 2,400 -120 Descending Kansas City Center
06:32PM 37.2761 -95.7744 180° South 112 129 2,300 -60 Descending Kansas City Center
06:33PM 37.2456 -95.7756 182° South 110 127 2,300 -240 Level Kansas City Center
06:34PM 37.2128 -95.7744 178° South 112 129 1,900 -360 Descending Kansas City Center
06:35PM 37.1792 -95.7753 181° South 117 135 1,600 -60 Descending Kansas City Center
06:36PM 37.1475 -95.7747 179° South 116 133 1,800 660 Climbing Kansas City Center
06:37PM 37.1122 -95.7747 180° South 121 139 3,000 960 Climbing Kansas City Center
06:38PM 37.0686 -95.7722 177° South 126 145 3,800 480 Climbing Kansas City Center
06:39PM 37.0303 -95.7692 176° South 132 152 4,000 60 Climbing Kansas City Center
06:40PM 36.9972 -95.7711 183° South 126 145 4,000  Level Kansas City Center
06:41PM 36.9658 -95.7758 187° South 119 137 4,000  Level Kansas City Center
06:42PM 36.9344 -95.7803 186° South 115 132 4,000  Level Kansas City Center
06:43PM 36.9031 -95.7850 187° South 114 131 4,000  Level Kansas City Center
06:44PM 36.8686 -95.7906 187° South 116 133 4,000  Level Kansas City Center
06:44PM 36.8722 -95.7889 20° North 113 130 4,000  Level Kansas City Center
06:45PM 36.8417 -95.7939 187° South 117 135 4,000  Level Kansas City Center
06:45PM 36.8344 -95.7947 185° South 113 130 4,000  Level Kansas City Center
06:46PM 36.8128 -95.7978 186° South 111 128 4,000  Level Kansas City Center
06:46PM 36.8039 -95.7983 183° South 112 129 4,000  Level Kansas City Center
06:47PM 36.7744 -95.8033 188° South 110 127 4,000  Level Kansas City Center
06:48PM 36.7517 -95.8217 213° Southwest 110 127 4,000  Level Kansas City Center
06:48PM 36.7494 -95.8233 211° Southwest 116 133 4,000  Level Kansas City Center
06:49PM 36.7286 -95.8456 221° Southwest 108 124 4,000  Level Kansas City Center
06:49PM 36.7242 -95.8453 177° South 113 130 4,000  Level Kansas City Center
06:50PM 36.6975 -95.8494 187° South 111 128 4,000  Level Kansas City Center
06:50PM 36.6947 -95.8494 180° South 117 135 4,000  Level Kansas City Center
06:51PM 36.6664 -95.8536 187° South 110 127 4,000  Level Kansas City Center
06:51PM 36.6639 -95.8511 141° Southeast 112 129 4,000  Level Kansas City Center
06:52PM 36.6328 -95.8528 182° South 118 136 4,000 60 Level Kansas City Center
06:52PM 36.6244 -95.8522 177° South 114 131 4,100 60 Climbing Kansas City Center
06:53PM 36.5992 -95.8519 179° South 122 140 4,100  Level Kansas City Center
06:53PM 36.5911 -95.8522 182° South 118 136 4,100  Level Kansas City Center
06:54PM 36.5642 -95.8592 192° South 117 135 4,100  Level Kansas City Center
06:54PM 36.5586 -95.8575 166° South 118 136 4,100  Level Kansas City Center
06:55PM 36.5267 -95.8617 186° South 138 159 4,100  Level Kansas City Center
06:55PM 36.5203 -95.8614 178° South 126 145 4,100  Level Kansas City Center
06:56PM 36.4867 -95.8617 180° South 146 168 4,100  Level Kansas City Center
06:56PM 36.4797 -95.8614 178° South 138 159 4,100 -240 Level Kansas City Center
06:57PM 36.4514 -95.8661 188° South 141 162 3,900 -300 Descending Kansas City Center
06:57PM 36.4408 -95.8653 176° South 140 161 3,800 -600 Descending Kansas City Center
06:58PM 36.4097 -95.8692 186° South 142 163 3,300 -720 Descending Kansas City Center
06:58PM 36.3939 -95.8689 179° South 141 162 3,100 -300 Descending Kansas City Center
06:59PM 36.3700 -95.8717 185° South 139 160 3,000 -120 Descending Kansas City Center
06:59PM 36.3564 -95.8711 178° South 139 160 3,000 -120 Level Kansas City Center
07:00PM 36.3239 -95.8731 183° South 129 148 2,900 -240 Descending Kansas City Center
07:01PM 36.3097 -95.8769 192° South 110 127 2,700 -600 Descending Kansas City Center
07:01PM 36.2922 -95.8758 177° South 120 138 2,300 -840 Descending Kansas City Center
07:02PM 36.2722 -95.8792 188° South 121 139 1,900 -720 Descending Kansas City Center
07:02PM 36.2589 -95.8783 177° South 119 137 1,600 -600 Descending Kansas City Center
07:03PM 36.2408 -95.8808 186° South 114 131 1,300 -600 Descending Kansas City Center
07:04PM 36.2278 -95.8797 176° South 116 133 1,000 -540 Descending Kansas City Center
07:05PM 36.1984 -95.8881 184° South  Level Estimated
07:12PM 36.1984 -95.8881 195° South  Level Estimated
07:13PM 36.1984 -95.8881 195° South  Level Estimated
07:14PM 36.1984 -95.8881 195° South  Level Estimated